TKJ4102 LTAC-LTCP
Flight info
| Callsign | TKJ4102 |
|---|---|
| Flight time | 0h 54m |
| Altitude | 39000 |
| Route | GOBIT UG8 GEM UW73 ERH/N0404F270 W103 SONSU |
| Aircraft | A21N/M-SDE3FGHIRWY/LB1 |
Departure
| Time | 2026-05-05 08:25 |
|---|---|
| Airport | Esenboğa International Airport (LTAC) |
Arrival
| Time | 2026-05-05 09:20 |
|---|---|
| Airport | Adıyaman Airport (LTCP) |
| Time | Latitude | Longitude | Altitude | Speed | Heading |
|---|---|---|---|---|---|
| 2026-05-05 08:17 | 40.11652 | 32.99150 | 3130 ft | 2 kts | 151° |
| 2026-05-05 08:17 | 40.11666 | 32.99141 | 3130 ft | 2 kts | 152° |
| 2026-05-05 08:17 | 40.11680 | 32.99135 | 3130 ft | 2 kts | 188° |
| 2026-05-05 08:17 | 40.11694 | 32.99142 | 3130 ft | 2 kts | 224° |
| 2026-05-05 08:18 | 40.11699 | 32.99151 | 3130 ft | 1 kts | 244° |
| 2026-05-05 08:18 | 40.11702 | 32.99158 | 3130 ft | 0 kts | 243° |
| 2026-05-05 08:20 | 40.11701 | 32.99155 | 3129 ft | 1 kts | 243° |
| 2026-05-05 08:20 | 40.11692 | 32.99133 | 3129 ft | 4 kts | 243° |
| 2026-05-05 08:20 | 40.11675 | 32.99088 | 3128 ft | 6 kts | 243° |
| 2026-05-05 08:21 | 40.11643 | 32.99025 | 3127 ft | 9 kts | 235° |
| 2026-05-05 08:21 | 40.11625 | 32.98981 | 3126 ft | 4 kts | 264° |
| 2026-05-05 08:21 | 40.11636 | 32.98929 | 3125 ft | 7 kts | 296° |
| 2026-05-05 08:21 | 40.11671 | 32.98866 | 3124 ft | 9 kts | 309° |
| 2026-05-05 08:22 | 40.11717 | 32.98789 | 3122 ft | 11 kts | 306° |
| 2026-05-05 08:22 | 40.11768 | 32.98694 | 3120 ft | 13 kts | 305° |
| 2026-05-05 08:22 | 40.11829 | 32.98586 | 3118 ft | 15 kts | 307° |
| 2026-05-05 08:22 | 40.11911 | 32.98505 | 3117 ft | 15 kts | 8° |
| 2026-05-05 08:23 | 40.11980 | 32.98559 | 3118 ft | 7 kts | 38° |
| 2026-05-05 08:23 | 40.11994 | 32.98573 | 3118 ft | 0 kts | 37° |
| 2026-05-05 08:24 | 40.11995 | 32.98574 | 3118 ft | 2 kts | 37° |
| 2026-05-05 08:24 | 40.12189 | 32.98757 | 3118 ft | 77 kts | 35° |
| 2026-05-05 08:24 | 40.12848 | 32.99383 | 3124 ft | 154 kts | 36° |
| 2026-05-05 08:25 | 40.13811 | 33.00296 | 3623 ft | 176 kts | 36° |
| 2026-05-05 08:25 | 40.14726 | 33.01192 | 4675 ft | 163 kts | 37° |
| 2026-05-05 08:25 | 40.15587 | 33.02084 | 5409 ft | 162 kts | 38° |
| 2026-05-05 08:25 | 40.16484 | 33.03075 | 5865 ft | 175 kts | 39° |
| 2026-05-05 08:26 | 40.17460 | 33.04153 | 6304 ft | 191 kts | 38° |
| 2026-05-05 08:26 | 40.18518 | 33.05290 | 6728 ft | 207 kts | 38° |
| 2026-05-05 08:26 | 40.19674 | 33.06546 | 7137 ft | 225 kts | 43° |
| 2026-05-05 08:26 | 40.20520 | 33.08356 | 7461 ft | 251 kts | 72° |
| 2026-05-05 08:27 | 40.20595 | 33.10641 | 8192 ft | 260 kts | 99° |
| 2026-05-05 08:27 | 40.19809 | 33.12833 | 8718 ft | 279 kts | 125° |
| 2026-05-05 08:27 | 40.18553 | 33.14820 | 9451 ft | 286 kts | 126° |
| 2026-05-05 08:27 | 40.17307 | 33.16834 | 10286 ft | 288 kts | 126° |
| 2026-05-05 08:28 | 40.16053 | 33.18892 | 10980 ft | 295 kts | 125° |
| 2026-05-05 08:28 | 40.14779 | 33.20999 | 11692 ft | 299 kts | 125° |
| 2026-05-05 08:28 | 40.13487 | 33.23134 | 12399 ft | 302 kts | 125° |
| 2026-05-05 08:28 | 40.12182 | 33.25294 | 12830 ft | 304 kts | 125° |
| 2026-05-05 08:29 | 40.10881 | 33.27445 | 13016 ft | 307 kts | 125° |
| 2026-05-05 08:29 | 40.09551 | 33.29648 | 13566 ft | 312 kts | 125° |
| 2026-05-05 08:29 | 40.08207 | 33.31865 | 14393 ft | 311 kts | 124° |
| 2026-05-05 08:30 | 40.05514 | 33.36310 | 15743 ft | 318 kts | 124° |
| 2026-05-05 08:30 | 40.04130 | 33.38594 | 16389 ft | 322 kts | 124° |
| 2026-05-05 08:30 | 40.02740 | 33.40883 | 17013 ft | 326 kts | 124° |
| 2026-05-05 08:30 | 40.01368 | 33.43231 | 17621 ft | 329 kts | 121° |
| 2026-05-05 08:31 | 40.00064 | 33.45714 | 18227 ft | 331 kts | 119° |
| 2026-05-05 08:31 | 39.98774 | 33.48206 | 18818 ft | 335 kts | 119° |
| 2026-05-05 08:31 | 39.97461 | 33.50742 | 19404 ft | 339 kts | 119° |
| 2026-05-05 08:31 | 39.96153 | 33.53263 | 19976 ft | 342 kts | 119° |
| 2026-05-05 08:32 | 39.94822 | 33.55827 | 20555 ft | 345 kts | 119° |
| 2026-05-05 08:32 | 39.93468 | 33.58431 | 21123 ft | 348 kts | 119° |
| 2026-05-05 08:32 | 39.92096 | 33.61062 | 21673 ft | 352 kts | 119° |
| 2026-05-05 08:32 | 39.90723 | 33.63697 | 22105 ft | 358 kts | 119° |
| 2026-05-05 08:33 | 39.89320 | 33.66385 | 22596 ft | 362 kts | 120° |
| 2026-05-05 08:33 | 39.87895 | 33.69114 | 23122 ft | 365 kts | 120° |
| 2026-05-05 08:33 | 39.86473 | 33.71831 | 23649 ft | 367 kts | 120° |
| 2026-05-05 08:33 | 39.85035 | 33.74575 | 24148 ft | 369 kts | 120° |
| 2026-05-05 08:34 | 39.83579 | 33.77354 | 24597 ft | 372 kts | 120° |
| 2026-05-05 08:34 | 39.82124 | 33.80125 | 25015 ft | 376 kts | 120° |
| 2026-05-05 08:34 | 39.80652 | 33.82932 | 25430 ft | 379 kts | 120° |
| 2026-05-05 08:34 | 39.79169 | 33.85777 | 25832 ft | 381 kts | 118° |
| 2026-05-05 08:35 | 39.77834 | 33.88744 | 26228 ft | 381 kts | 112° |
| 2026-05-05 08:35 | 39.76736 | 33.91827 | 26608 ft | 381 kts | 107° |
| 2026-05-05 08:35 | 39.75796 | 33.95048 | 26970 ft | 383 kts | 105° |
| 2026-05-05 08:35 | 39.74877 | 33.98322 | 27356 ft | 385 kts | 105° |
| 2026-05-05 08:36 | 39.73965 | 34.01581 | 27740 ft | 388 kts | 105° |
| 2026-05-05 08:36 | 39.73036 | 34.04896 | 28125 ft | 390 kts | 105° |
| 2026-05-05 08:36 | 39.72111 | 34.08178 | 28484 ft | 393 kts | 105° |
| 2026-05-05 08:36 | 39.71167 | 34.11508 | 28807 ft | 395 kts | 105° |
| 2026-05-05 08:37 | 39.70213 | 34.14873 | 29107 ft | 397 kts | 105° |
| 2026-05-05 08:37 | 39.69263 | 34.18215 | 29388 ft | 400 kts | 106° |
| 2026-05-05 08:37 | 39.68292 | 34.21620 | 29668 ft | 403 kts | 106° |
| 2026-05-05 08:37 | 39.67324 | 34.25008 | 29954 ft | 406 kts | 106° |
| 2026-05-05 08:38 | 39.66341 | 34.28445 | 30239 ft | 408 kts | 106° |
| 2026-05-05 08:38 | 39.65348 | 34.31911 | 30512 ft | 411 kts | 106° |
| 2026-05-05 08:38 | 39.64365 | 34.35345 | 30747 ft | 413 kts | 106° |
| 2026-05-05 08:38 | 39.63355 | 34.38869 | 30998 ft | 415 kts | 107° |
| 2026-05-05 08:39 | 39.62347 | 34.42378 | 31232 ft | 417 kts | 107° |
| 2026-05-05 08:39 | 39.61333 | 34.45895 | 31484 ft | 419 kts | 107° |
| 2026-05-05 08:39 | 39.60315 | 34.49430 | 31734 ft | 421 kts | 108° |
| 2026-05-05 08:39 | 39.59300 | 34.52949 | 31962 ft | 423 kts | 108° |
| 2026-05-05 08:40 | 39.58263 | 34.56533 | 32201 ft | 426 kts | 108° |
| 2026-05-05 08:40 | 39.57223 | 34.60117 | 32426 ft | 428 kts | 108° |
| 2026-05-05 08:40 | 39.56175 | 34.63733 | 32638 ft | 431 kts | 108° |
| 2026-05-05 08:40 | 39.55112 | 34.67391 | 32855 ft | 434 kts | 109° |
| 2026-05-05 08:41 | 39.54044 | 34.71066 | 33065 ft | 436 kts | 109° |
| 2026-05-05 08:41 | 39.52989 | 34.74691 | 33285 ft | 438 kts | 109° |
| 2026-05-05 08:41 | 39.51903 | 34.78411 | 33508 ft | 440 kts | 109° |
| 2026-05-05 08:41 | 39.50830 | 34.82088 | 33721 ft | 443 kts | 110° |
| 2026-05-05 08:42 | 39.49731 | 34.85849 | 33934 ft | 446 kts | 110° |
| 2026-05-05 08:42 | 39.48630 | 34.89610 | 34158 ft | 448 kts | 110° |
| 2026-05-05 08:42 | 39.47536 | 34.93334 | 34390 ft | 450 kts | 110° |
| 2026-05-05 08:42 | 39.46425 | 34.97119 | 34682 ft | 449 kts | 110° |
| 2026-05-05 08:43 | 39.45319 | 35.00879 | 35013 ft | 448 kts | 110° |
| 2026-05-05 08:43 | 39.44209 | 35.04649 | 35328 ft | 447 kts | 110° |
| 2026-05-05 08:43 | 39.43111 | 35.08366 | 35615 ft | 446 kts | 111° |
| 2026-05-05 08:43 | 39.41996 | 35.12139 | 35865 ft | 447 kts | 111° |
| 2026-05-05 08:44 | 39.40890 | 35.15877 | 36101 ft | 447 kts | 111° |
| 2026-05-05 08:44 | 39.39784 | 35.19625 | 36334 ft | 447 kts | 111° |
| 2026-05-05 08:44 | 39.38702 | 35.23363 | 36557 ft | 448 kts | 110° |
| 2026-05-05 08:44 | 39.37613 | 35.27145 | 36773 ft | 448 kts | 111° |
| 2026-05-05 08:45 | 39.36539 | 35.30867 | 36980 ft | 448 kts | 110° |
| 2026-05-05 08:45 | 39.35448 | 35.34638 | 37187 ft | 449 kts | 111° |
| 2026-05-05 08:45 | 39.34354 | 35.38413 | 37360 ft | 450 kts | 111° |
| 2026-05-05 08:45 | 39.33250 | 35.42208 | 37525 ft | 451 kts | 111° |
| 2026-05-05 08:46 | 39.32156 | 35.45968 | 37673 ft | 453 kts | 111° |
| 2026-05-05 08:46 | 39.31047 | 35.49770 | 37823 ft | 454 kts | 111° |
| 2026-05-05 08:46 | 39.29926 | 35.53607 | 37999 ft | 455 kts | 111° |
| 2026-05-05 08:46 | 39.28817 | 35.57397 | 38186 ft | 456 kts | 111° |
| 2026-05-05 08:47 | 39.27701 | 35.61206 | 38371 ft | 456 kts | 111° |
| 2026-05-05 08:47 | 39.26580 | 35.65026 | 38541 ft | 457 kts | 112° |
| 2026-05-05 08:47 | 39.25456 | 35.68849 | 38702 ft | 458 kts | 112° |
| 2026-05-05 08:47 | 39.24320 | 35.72713 | 38848 ft | 459 kts | 112° |
| 2026-05-05 08:48 | 39.23193 | 35.76532 | 38872 ft | 460 kts | 112° |
| 2026-05-05 08:48 | 39.20928 | 35.84203 | 38881 ft | 459 kts | 112° |
| 2026-05-05 08:49 | 39.18655 | 35.91874 | 38910 ft | 459 kts | 112° |
| 2026-05-05 08:49 | 39.16371 | 35.99559 | 38936 ft | 459 kts | 112° |
| 2026-05-05 08:50 | 39.14046 | 36.07172 | 38933 ft | 459 kts | 113° |
| 2026-05-05 08:50 | 39.11604 | 36.14742 | 38924 ft | 460 kts | 114° |
| 2026-05-05 08:51 | 39.09140 | 36.22348 | 38916 ft | 460 kts | 114° |
| 2026-05-05 08:51 | 39.06686 | 36.29935 | 38906 ft | 461 kts | 114° |
| 2026-05-05 08:52 | 39.04239 | 36.37487 | 38905 ft | 460 kts | 114° |
| 2026-05-05 08:52 | 39.01791 | 36.45030 | 38907 ft | 460 kts | 114° |
| 2026-05-05 08:53 | 38.99317 | 36.52633 | 38915 ft | 461 kts | 114° |
| 2026-05-05 08:53 | 38.96850 | 36.60196 | 38908 ft | 461 kts | 114° |
| 2026-05-05 08:54 | 38.94353 | 36.67825 | 38900 ft | 462 kts | 115° |
| 2026-05-05 08:54 | 38.91869 | 36.75395 | 38593 ft | 462 kts | 115° |
| 2026-05-05 08:54 | 38.90624 | 36.79182 | 38317 ft | 459 kts | 115° |
| 2026-05-05 08:55 | 38.89391 | 36.82928 | 38043 ft | 457 kts | 115° |
| 2026-05-05 08:55 | 38.88173 | 36.86623 | 37785 ft | 454 kts | 115° |
| 2026-05-05 08:55 | 38.86930 | 36.90385 | 37559 ft | 453 kts | 115° |
| 2026-05-05 08:55 | 38.85705 | 36.94092 | 37256 ft | 453 kts | 115° |
| 2026-05-05 08:56 | 38.84486 | 36.97777 | 36837 ft | 453 kts | 115° |
| 2026-05-05 08:56 | 38.83253 | 37.01499 | 36297 ft | 455 kts | 116° |
| 2026-05-05 08:56 | 38.82027 | 37.05194 | 35688 ft | 457 kts | 116° |
| 2026-05-05 08:56 | 38.80772 | 37.08968 | 35045 ft | 460 kts | 116° |
| 2026-05-05 08:57 | 38.79530 | 37.12699 | 34403 ft | 462 kts | 116° |
| 2026-05-05 08:57 | 38.78273 | 37.16478 | 33947 ft | 459 kts | 116° |
| 2026-05-05 08:57 | 38.77029 | 37.20229 | 33547 ft | 454 kts | 116° |
| 2026-05-05 08:57 | 38.75809 | 37.23899 | 33096 ft | 452 kts | 117° |
| 2026-05-05 08:58 | 38.74582 | 37.27587 | 32612 ft | 450 kts | 117° |
| 2026-05-05 08:58 | 38.73360 | 37.31248 | 32110 ft | 449 kts | 117° |
| 2026-05-05 08:58 | 38.72137 | 37.34913 | 31596 ft | 448 kts | 117° |
| 2026-05-05 08:58 | 38.70916 | 37.38560 | 31125 ft | 445 kts | 117° |
| 2026-05-05 08:59 | 38.69715 | 37.42148 | 30610 ft | 444 kts | 118° |
| 2026-05-05 08:59 | 38.68501 | 37.45766 | 30133 ft | 441 kts | 118° |
| 2026-05-05 08:59 | 38.67297 | 37.49340 | 29620 ft | 437 kts | 118° |
| 2026-05-05 08:59 | 38.66111 | 37.52863 | 29202 ft | 431 kts | 118° |
| 2026-05-05 09:00 | 38.64932 | 37.56364 | 28641 ft | 428 kts | 118° |
| 2026-05-05 09:00 | 38.63764 | 37.59824 | 28148 ft | 423 kts | 117° |
| 2026-05-05 09:00 | 38.62598 | 37.63271 | 27647 ft | 419 kts | 117° |
| 2026-05-05 09:00 | 38.61459 | 37.66642 | 27160 ft | 414 kts | 118° |
| 2026-05-05 09:01 | 38.60319 | 37.70008 | 26705 ft | 409 kts | 118° |
| 2026-05-05 09:01 | 38.59196 | 37.73326 | 26244 ft | 404 kts | 118° |
| 2026-05-05 09:01 | 38.58093 | 37.76576 | 25790 ft | 399 kts | 118° |
| 2026-05-05 09:01 | 38.57003 | 37.79783 | 25331 ft | 394 kts | 118° |
| 2026-05-05 09:02 | 38.55909 | 37.83000 | 24872 ft | 389 kts | 118° |
| 2026-05-05 09:02 | 38.54850 | 37.86113 | 24437 ft | 385 kts | 117° |
| 2026-05-05 09:02 | 38.53786 | 37.89237 | 23989 ft | 380 kts | 117° |
| 2026-05-05 09:02 | 38.52742 | 37.92297 | 23534 ft | 376 kts | 117° |
| 2026-05-05 09:03 | 38.51702 | 37.95342 | 23094 ft | 371 kts | 117° |
| 2026-05-05 09:03 | 38.50678 | 37.98332 | 22658 ft | 367 kts | 117° |
| 2026-05-05 09:03 | 38.49662 | 38.01305 | 22230 ft | 363 kts | 117° |
| 2026-05-05 09:03 | 38.48661 | 38.04223 | 21805 ft | 359 kts | 117° |
| 2026-05-05 09:04 | 38.47662 | 38.07138 | 21382 ft | 355 kts | 117° |
| 2026-05-05 09:04 | 38.46521 | 38.09859 | 20917 ft | 347 kts | 131° |
| 2026-05-05 09:04 | 38.44740 | 38.11864 | 20464 ft | 338 kts | 152° |
| 2026-05-05 09:04 | 38.42615 | 38.13022 | 20039 ft | 332 kts | 161° |
| 2026-05-05 09:05 | 38.40468 | 38.14017 | 19638 ft | 328 kts | 161° |
| 2026-05-05 09:05 | 38.38316 | 38.15022 | 19231 ft | 325 kts | 161° |
| 2026-05-05 09:05 | 38.36197 | 38.16014 | 18822 ft | 323 kts | 160° |
| 2026-05-05 09:05 | 38.34110 | 38.16998 | 18416 ft | 320 kts | 161° |
| 2026-05-05 09:06 | 38.32043 | 38.17971 | 18014 ft | 318 kts | 160° |
| 2026-05-05 09:06 | 38.29964 | 38.18953 | 17607 ft | 315 kts | 160° |
| 2026-05-05 09:06 | 38.27948 | 38.19906 | 17214 ft | 312 kts | 160° |
| 2026-05-05 09:06 | 38.25905 | 38.20869 | 16816 ft | 310 kts | 160° |
| 2026-05-05 09:07 | 38.23899 | 38.21813 | 16417 ft | 308 kts | 160° |
| 2026-05-05 09:07 | 38.21874 | 38.22767 | 16026 ft | 306 kts | 160° |
| 2026-05-05 09:07 | 38.19897 | 38.23699 | 15642 ft | 304 kts | 160° |
| 2026-05-05 09:07 | 38.17929 | 38.24628 | 15262 ft | 301 kts | 160° |
| 2026-05-05 09:08 | 38.15986 | 38.25541 | 14881 ft | 298 kts | 160° |
| 2026-05-05 09:08 | 38.14040 | 38.26457 | 14513 ft | 295 kts | 160° |
| 2026-05-05 09:08 | 38.12137 | 38.27351 | 14147 ft | 292 kts | 160° |
| 2026-05-05 09:08 | 38.10235 | 38.28245 | 13779 ft | 289 kts | 161° |
| 2026-05-05 09:09 | 38.08369 | 38.29119 | 13428 ft | 285 kts | 160° |
| 2026-05-05 09:09 | 38.06523 | 38.29984 | 13077 ft | 284 kts | 160° |
| 2026-05-05 09:09 | 38.04672 | 38.30854 | 12718 ft | 284 kts | 160° |
| 2026-05-05 09:09 | 38.02828 | 38.31718 | 12354 ft | 282 kts | 161° |
| 2026-05-05 09:10 | 38.00998 | 38.32574 | 11990 ft | 281 kts | 161° |
| 2026-05-05 09:10 | 37.99166 | 38.33435 | 11623 ft | 279 kts | 160° |
| 2026-05-05 09:10 | 37.97345 | 38.34285 | 11273 ft | 277 kts | 160° |
| 2026-05-05 09:10 | 37.95557 | 38.35120 | 10921 ft | 275 kts | 160° |
| 2026-05-05 09:11 | 37.93767 | 38.35959 | 10554 ft | 273 kts | 160° |
| 2026-05-05 09:11 | 37.91993 | 38.36791 | 10201 ft | 271 kts | 160° |
| 2026-05-05 09:11 | 37.90231 | 38.37618 | 9941 ft | 265 kts | 160° |
| 2026-05-05 09:11 | 37.88464 | 38.38194 | 9689 ft | 260 kts | 178° |
| 2026-05-05 09:12 | 37.86697 | 38.37738 | 9301 ft | 263 kts | 202° |
| 2026-05-05 09:12 | 37.85123 | 38.36589 | 8919 ft | 265 kts | 208° |
| 2026-05-05 09:12 | 37.83537 | 38.35387 | 8548 ft | 264 kts | 208° |
| 2026-05-05 09:12 | 37.81966 | 38.34208 | 8190 ft | 263 kts | 208° |
| 2026-05-05 09:13 | 37.80401 | 38.33036 | 7841 ft | 262 kts | 208° |
| 2026-05-05 09:13 | 37.78818 | 38.31853 | 7493 ft | 261 kts | 208° |
| 2026-05-05 09:13 | 37.77271 | 38.30696 | 7157 ft | 260 kts | 208° |
| 2026-05-05 09:13 | 37.75713 | 38.29533 | 6817 ft | 259 kts | 208° |
| 2026-05-05 09:14 | 37.74162 | 38.28377 | 6481 ft | 258 kts | 208° |
| 2026-05-05 09:14 | 37.72625 | 38.27231 | 6216 ft | 253 kts | 208° |
| 2026-05-05 09:14 | 37.71151 | 38.26133 | 6124 ft | 241 kts | 208° |
| 2026-05-05 09:14 | 37.69700 | 38.25138 | 6007 ft | 229 kts | 196° |
| 2026-05-05 09:15 | 37.68194 | 38.25064 | 5869 ft | 217 kts | 161° |
| 2026-05-05 09:15 | 37.66908 | 38.26015 | 5587 ft | 214 kts | 137° |
| 2026-05-05 09:15 | 37.65836 | 38.27248 | 5534 ft | 203 kts | 137° |
| 2026-05-05 09:15 | 37.64791 | 38.28421 | 5457 ft | 202 kts | 138° |
| 2026-05-05 09:16 | 37.63788 | 38.29638 | 5316 ft | 201 kts | 123° |
| 2026-05-05 09:16 | 37.63388 | 38.31311 | 5088 ft | 204 kts | 88° |
| 2026-05-05 09:16 | 37.63811 | 38.33023 | 4836 ft | 209 kts | 63° |
| 2026-05-05 09:16 | 37.64662 | 38.34549 | 4495 ft | 211 kts | 52° |
| 2026-05-05 09:17 | 37.65611 | 38.35897 | 4296 ft | 203 kts | 50° |
| 2026-05-05 09:17 | 37.66543 | 38.37210 | 3992 ft | 198 kts | 51° |
| 2026-05-05 09:17 | 37.67427 | 38.38501 | 3702 ft | 189 kts | 51° |
| 2026-05-05 09:17 | 37.68251 | 38.39722 | 3433 ft | 175 kts | 52° |
| 2026-05-05 09:18 | 37.69007 | 38.40839 | 3201 ft | 162 kts | 52° |
| 2026-05-05 09:18 | 37.69704 | 38.41866 | 3025 ft | 144 kts | 52° |
| 2026-05-05 09:18 | 37.70329 | 38.42786 | 2839 ft | 136 kts | 51° |
| 2026-05-05 09:18 | 37.70949 | 38.43702 | 2661 ft | 136 kts | 52° |
| 2026-05-05 09:19 | 37.71557 | 38.44594 | 2488 ft | 135 kts | 52° |
| 2026-05-05 09:19 | 37.72172 | 38.45499 | 2320 ft | 134 kts | 50° |
| 2026-05-05 09:19 | 37.72779 | 38.46377 | 2218 ft | 131 kts | 52° |
| 2026-05-05 09:19 | 37.73236 | 38.47057 | 2214 ft | 60 kts | 50° |
| 2026-05-05 09:20 | 37.73385 | 38.47271 | 2212 ft | 17 kts | 42° |
| 2026-05-05 09:20 | 37.73452 | 38.47271 | 2212 ft | 10 kts | 323° |
| 2026-05-05 09:20 | 37.73508 | 38.47210 | 2212 ft | 11 kts | 317° |
| 2026-05-05 09:20 | 37.73541 | 38.47136 | 2211 ft | 8 kts | 265° |
| 2026-05-05 09:21 | 37.73552 | 38.47087 | 2212 ft | 5 kts | 309° |
| 2026-05-05 09:21 | 37.73569 | 38.47066 | 2211 ft | 0 kts | 316° |